sensor_id;sensor_type;location;lat;lon;timestamp;temperature;humidity
17813;DHT22;9030;50.792;8.320;2023-02-03T00:01:43;22.40;54.00
17813;DHT22;9030;50.792;8.320;2023-02-03T00:04:10;22.40;54.00
17813;DHT22;9030;50.792;8.320;2023-02-03T00:06:37;22.40;54.00
17813;DHT22;9030;50.792;8.320;2023-02-03T00:09:04;22.40;54.10
17813;DHT22;9030;50.792;8.320;2023-02-03T00:11:31;22.40;54.10
17813;DHT22;9030;50.792;8.320;2023-02-03T00:13:58;22.30;54.10
17813;DHT22;9030;50.792;8.320;2023-02-03T00:16:25;22.30;54.10
17813;DHT22;9030;50.792;8.320;2023-02-03T00:18:53;22.30;54.20
17813;DHT22;9030;50.792;8.320;2023-02-03T00:21:19;22.30;54.20
17813;DHT22;9030;50.792;8.320;2023-02-03T00:23:46;22.30;54.10
17813;DHT22;9030;50.792;8.320;2023-02-03T00:26:14;22.30;54.20
17813;DHT22;9030;50.792;8.320;2023-02-03T00:28:41;22.30;54.20
17813;DHT22;9030;50.792;8.320;2023-02-03T00:31:14;22.20;54.10
17813;DHT22;9030;50.792;8.320;2023-02-03T00:33:41;22.20;54.10
17813;DHT22;9030;50.792;8.320;2023-02-03T00:36:10;22.20;54.10
17813;DHT22;9030;50.792;8.320;2023-02-03T00:38:37;22.20;54.30
17813;DHT22;9030;50.792;8.320;2023-02-03T00:41:04;22.20;54.10
17813;DHT22;9030;50.792;8.320;2023-02-03T00:43:31;22.20;54.20
17813;DHT22;9030;50.792;8.320;2023-02-03T00:45:57;22.10;54.10
17813;DHT22;9030;50.792;8.320;2023-02-03T00:48:24;22.10;54.20
17813;DHT22;9030;50.792;8.320;2023-02-03T00:50:51;22.10;54.20
17813;DHT22;9030;50.792;8.320;2023-02-03T00:53:19;22.10;54.20
17813;DHT22;9030;50.792;8.320;2023-02-03T00:55:46;22.10;54.30
17813;DHT22;9030;50.792;8.320;2023-02-03T00:58:12;22.10;54.40
17813;DHT22;9030;50.792;8.320;2023-02-03T01:00:39;22.10;54.20
17813;DHT22;9030;50.792;8.320;2023-02-03T01:03:05;22.00;54.30
17813;DHT22;9030;50.792;8.320;2023-02-03T01:05:32;22.00;54.20
17813;DHT22;9030;50.792;8.320;2023-02-03T01:07:59;22.00;54.30
17813;DHT22;9030;50.792;8.320;2023-02-03T01:10:27;22.00;54.30
17813;DHT22;9030;50.792;8.320;2023-02-03T01:12:54;22.00;54.30
17813;DHT22;9030;50.792;8.320;2023-02-03T01:15:21;22.00;54.30
17813;DHT22;9030;50.792;8.320;2023-02-03T01:17:48;21.90;54.30
17813;DHT22;9030;50.792;8.320;2023-02-03T01:20:14;21.90;54.30
17813;DHT22;9030;50.792;8.320;2023-02-03T01:22:41;21.90;54.30
17813;DHT22;9030;50.792;8.320;2023-02-03T01:25:08;21.90;54.30
17813;DHT22;9030;50.792;8.320;2023-02-03T01:27:36;21.90;54.40
17813;DHT22;9030;50.792;8.320;2023-02-03T01:30:03;21.80;54.30
17813;DHT22;9030;50.792;8.320;2023-02-03T01:32:30;21.80;54.40
17813;DHT22;9030;50.792;8.320;2023-02-03T01:34:57;21.80;54.30
17813;DHT22;9030;50.792;8.320;2023-02-03T01:37:23;21.80;54.30
17813;DHT22;9030;50.792;8.320;2023-02-03T01:39:50;21.80;54.40
17813;DHT22;9030;50.792;8.320;2023-02-03T01:42:17;21.80;54.40
17813;DHT22;9030;50.792;8.320;2023-02-03T01:44:46;21.70;54.30
17813;DHT22;9030;50.792;8.320;2023-02-03T01:47:21;21.70;54.40
17813;DHT22;9030;50.792;8.320;2023-02-03T01:49:52;21.70;54.50
17813;DHT22;9030;50.792;8.320;2023-02-03T01:52:20;21.70;54.50
17813;DHT22;9030;50.792;8.320;2023-02-03T01:54:48;21.70;54.50
17813;DHT22;9030;50.792;8.320;2023-02-03T01:57:19;21.70;54.60
17813;DHT22;9030;50.792;8.320;2023-02-03T01:59:49;21.60;54.60
17813;DHT22;9030;50.792;8.320;2023-02-03T02:02:18;21.60;54.60
17813;DHT22;9030;50.792;8.320;2023-02-03T02:04:52;21.60;54.60
17813;DHT22;9030;50.792;8.320;2023-02-03T02:07:21;21.60;54.60
17813;DHT22;9030;50.792;8.320;2023-02-03T02:09:48;21.50;54.60
17813;DHT22;9030;50.792;8.320;2023-02-03T02:12:15;21.50;54.60
17813;DHT22;9030;50.792;8.320;2023-02-03T02:14:43;21.50;54.60
17813;DHT22;9030;50.792;8.320;2023-02-03T02:17:25;21.50;54.70
17813;DHT22;9030;50.792;8.320;2023-02-03T02:20:31;21.50;54.70
17813;DHT22;9030;50.792;8.320;2023-02-03T02:23:23;21.40;54.60
17813;DHT22;9030;50.792;8.320;2023-02-03T02:29:11;21.40;54.70
17813;DHT22;9030;50.792;8.320;2023-02-03T02:32:04;21.40;54.80
17813;DHT22;9030;50.792;8.320;2023-02-03T02:34:42;21.40;54.80
17813;DHT22;9030;50.792;8.320;2023-02-03T02:37:21;21.30;54.80
17813;DHT22;9030;50.792;8.320;2023-02-03T02:39:56;21.30;54.80
17813;DHT22;9030;50.792;8.320;2023-02-03T02:42:29;21.30;54.80
17813;DHT22;9030;50.792;8.320;2023-02-03T02:45:02;21.30;54.90
17813;DHT22;9030;50.792;8.320;2023-02-03T02:47:32;21.30;54.90
17813;DHT22;9030;50.792;8.320;2023-02-03T02:50:03;21.30;54.90
17813;DHT22;9030;50.792;8.320;2023-02-03T02:52:34;21.20;54.80
17813;DHT22;9030;50.792;8.320;2023-02-03T02:55:05;21.30;55.00
17813;DHT22;9030;50.792;8.320;2023-02-03T02:57:34;21.20;55.10
17813;DHT22;9030;50.792;8.320;2023-02-03T03:00:02;21.20;55.10
17813;DHT22;9030;50.792;8.320;2023-02-03T03:02:32;21.20;55.10
17813;DHT22;9030;50.792;8.320;2023-02-03T03:05:00;21.20;55.10
17813;DHT22;9030;50.792;8.320;2023-02-03T03:07:33;21.20;55.10
17813;DHT22;9030;50.792;8.320;2023-02-03T03:10:04;21.20;55.10
17813;DHT22;9030;50.792;8.320;2023-02-03T03:12:35;21.10;55.00
17813;DHT22;9030;50.792;8.320;2023-02-03T03:15:06;21.10;55.10
17813;DHT22;9030;50.792;8.320;2023-02-03T03:17:40;21.10;55.20
17813;DHT22;9030;50.792;8.320;2023-02-03T03:20:11;21.10;55.10
17813;DHT22;9030;50.792;8.320;2023-02-03T03:22:44;21.10;55.10
17813;DHT22;9030;50.792;8.320;2023-02-03T03:25:16;21.10;55.10
17813;DHT22;9030;50.792;8.320;2023-02-03T03:27:47;21.00;55.10
17813;DHT22;9030;50.792;8.320;2023-02-03T03:30:17;21.00;55.10
17813;DHT22;9030;50.792;8.320;2023-02-03T03:32:47;21.00;55.10
17813;DHT22;9030;50.792;8.320;2023-02-03T03:35:15;21.00;55.10
17813;DHT22;9030;50.792;8.320;2023-02-03T03:37:44;21.00;55.20
17813;DHT22;9030;50.792;8.320;2023-02-03T03:40:16;20.90;55.10
17813;DHT22;9030;50.792;8.320;2023-02-03T03:42:46;21.00;55.10
17813;DHT22;9030;50.792;8.320;2023-02-03T03:45:18;20.90;55.20
17813;DHT22;9030;50.792;8.320;2023-02-03T03:47:53;20.90;55.10
17813;DHT22;9030;50.792;8.320;2023-02-03T03:50:25;20.90;55.20
17813;DHT22;9030;50.792;8.320;2023-02-03T03:52:54;20.90;55.20
17813;DHT22;9030;50.792;8.320;2023-02-03T03:55:24;20.90;55.30
17813;DHT22;9030;50.792;8.320;2023-02-03T03:57:57;20.90;55.30
17813;DHT22;9030;50.792;8.320;2023-02-03T04:00:27;20.90;55.30
17813;DHT22;9030;50.792;8.320;2023-02-03T04:03:00;20.90;55.30
17813;DHT22;9030;50.792;8.320;2023-02-03T04:05:27;20.80;55.20
17813;DHT22;9030;50.792;8.320;2023-02-03T04:07:54;20.80;55.30
17813;DHT22;9030;50.792;8.320;2023-02-03T04:10:24;20.80;55.30
17813;DHT22;9030;50.792;8.320;2023-02-03T04:12:52;20.80;55.30
17813;DHT22;9030;50.792;8.320;2023-02-03T04:15:19;20.80;55.30
17813;DHT22;9030;50.792;8.320;2023-02-03T04:17:46;20.80;55.30
17813;DHT22;9030;50.792;8.320;2023-02-03T04:20:14;20.70;55.30
17813;DHT22;9030;50.792;8.320;2023-02-03T04:22:41;20.80;55.30
17813;DHT22;9030;50.792;8.320;2023-02-03T04:25:08;20.80;55.30
17813;DHT22;9030;50.792;8.320;2023-02-03T04:27:35;20.80;55.30
17813;DHT22;9030;50.792;8.320;2023-02-03T04:30:02;20.70;55.30
17813;DHT22;9030;50.792;8.320;2023-02-03T04:32:29;20.70;55.30
17813;DHT22;9030;50.792;8.320;2023-02-03T04:34:56;20.70;55.40
17813;DHT22;9030;50.792;8.320;2023-02-03T04:37:24;20.70;55.30
17813;DHT22;9030;50.792;8.320;2023-02-03T04:39:51;20.70;55.40
17813;DHT22;9030;50.792;8.320;2023-02-03T04:42:19;20.70;55.40
17813;DHT22;9030;50.792;8.320;2023-02-03T04:44:46;20.70;55.40
17813;DHT22;9030;50.792;8.320;2023-02-03T04:47:13;20.70;55.40
17813;DHT22;9030;50.792;8.320;2023-02-03T04:49:40;20.60;55.40
17813;DHT22;9030;50.792;8.320;2023-02-03T04:52:07;20.60;55.40
17813;DHT22;9030;50.792;8.320;2023-02-03T04:54:35;20.60;55.50
17813;DHT22;9030;50.792;8.320;2023-02-03T04:57:03;20.60;55.50
17813;DHT22;9030;50.792;8.320;2023-02-03T04:59:29;20.60;55.50
17813;DHT22;9030;50.792;8.320;2023-02-03T05:01:56;20.60;55.50
17813;DHT22;9030;50.792;8.320;2023-02-03T05:04:23;20.60;55.50
17813;DHT22;9030;50.792;8.320;2023-02-03T05:06:50;20.50;55.50
17813;DHT22;9030;50.792;8.320;2023-02-03T05:09:17;20.50;55.50
17813;DHT22;9030;50.792;8.320;2023-02-03T05:11:45;20.50;55.50
17813;DHT22;9030;50.792;8.320;2023-02-03T05:14:12;20.50;55.60
17813;DHT22;9030;50.792;8.320;2023-02-03T05:16:38;20.50;55.60
17813;DHT22;9030;50.792;8.320;2023-02-03T05:19:05;20.50;55.60
17813;DHT22;9030;50.792;8.320;2023-02-03T05:21:33;20.50;55.60
17813;DHT22;9030;50.792;8.320;2023-02-03T05:23:59;20.50;55.60
17813;DHT22;9030;50.792;8.320;2023-02-03T05:26:28;20.50;55.60
17813;DHT22;9030;50.792;8.320;2023-02-03T05:28:56;20.50;55.70
17813;DHT22;9030;50.792;8.320;2023-02-03T05:31:23;20.50;55.70
17813;DHT22;9030;50.792;8.320;2023-02-03T05:33:49;20.40;55.60
17813;DHT22;9030;50.792;8.320;2023-02-03T05:36:16;20.50;55.80
17813;DHT22;9030;50.792;8.320;2023-02-03T05:38:43;20.50;55.90
17813;DHT22;9030;50.792;8.320;2023-02-03T05:41:11;20.50;56.00
17813;DHT22;9030;50.792;8.320;2023-02-03T05:43:56;20.50;55.80
17813;DHT22;9030;50.792;8.320;2023-02-03T05:46:23;20.50;56.10
17813;DHT22;9030;50.792;8.320;2023-02-03T05:48:50;20.50;56.10
17813;DHT22;9030;50.792;8.320;2023-02-03T05:51:17;20.50;56.20
17813;DHT22;9030;50.792;8.320;2023-02-03T05:53:44;20.60;56.30
17813;DHT22;9030;50.792;8.320;2023-02-03T05:56:11;20.60;56.50
17813;DHT22;9030;50.792;8.320;2023-02-03T05:58:37;20.70;56.30
17813;DHT22;9030;50.792;8.320;2023-02-03T06:01:05;20.70;56.30
17813;DHT22;9030;50.792;8.320;2023-02-03T06:03:32;20.80;56.30
17813;DHT22;9030;50.792;8.320;2023-02-03T06:05:59;20.80;56.20
17813;DHT22;9030;50.792;8.320;2023-02-03T06:08:25;20.80;56.20
17813;DHT22;9030;50.792;8.320;2023-02-03T06:10:56;20.90;56.10
17813;DHT22;9030;50.792;8.320;2023-02-03T06:13:24;21.00;56.70
17813;DHT22;9030;50.792;8.320;2023-02-03T06:15:50;21.00;56.20
17813;DHT22;9030;50.792;8.320;2023-02-03T06:18:19;21.00;56.00
17813;DHT22;9030;50.792;8.320;2023-02-03T06:20:45;21.10;56.00
17813;DHT22;9030;50.792;8.320;2023-02-03T06:23:12;21.10;55.90
17813;DHT22;9030;50.792;8.320;2023-02-03T06:25:41;21.20;56.10
17813;DHT22;9030;50.792;8.320;2023-02-03T06:28:08;21.20;56.00
17813;DHT22;9030;50.792;8.320;2023-02-03T06:30:34;21.30;56.10
17813;DHT22;9030;50.792;8.320;2023-02-03T06:33:02;21.30;56.00
17813;DHT22;9030;50.792;8.320;2023-02-03T06:35:30;21.40;56.00
17813;DHT22;9030;50.792;8.320;2023-02-03T06:37:57;21.40;55.90
17813;DHT22;9030;50.792;8.320;2023-02-03T06:40:24;21.40;55.90
17813;DHT22;9030;50.792;8.320;2023-02-03T06:42:50;21.40;56.00
17813;DHT22;9030;50.792;8.320;2023-02-03T06:45:17;21.40;55.80
17813;DHT22;9030;50.792;8.320;2023-02-03T06:47:44;21.40;55.80
17813;DHT22;9030;50.792;8.320;2023-02-03T06:50:13;21.40;55.80
17813;DHT22;9030;50.792;8.320;2023-02-03T06:52:41;21.40;55.80
17813;DHT22;9030;50.792;8.320;2023-02-03T06:55:08;21.40;55.70
17813;DHT22;9030;50.792;8.320;2023-02-03T06:57:35;21.50;55.70
17813;DHT22;9030;50.792;8.320;2023-02-03T07:00:09;21.50;55.70
17813;DHT22;9030;50.792;8.320;2023-02-03T07:02:35;21.50;55.70
17813;DHT22;9030;50.792;8.320;2023-02-03T07:05:02;21.50;55.70
17813;DHT22;9030;50.792;8.320;2023-02-03T07:07:29;21.50;55.70
17813;DHT22;9030;50.792;8.320;2023-02-03T07:09:58;21.60;55.60
17813;DHT22;9030;50.792;8.320;2023-02-03T07:12:25;21.60;55.50
17813;DHT22;9030;50.792;8.320;2023-02-03T07:14:52;21.60;55.70
17813;DHT22;9030;50.792;8.320;2023-02-03T07:17:18;21.60;55.50
17813;DHT22;9030;50.792;8.320;2023-02-03T07:19:45;21.70;55.40
17813;DHT22;9030;50.792;8.320;2023-02-03T07:22:12;21.70;55.40
17813;DHT22;9030;50.792;8.320;2023-02-03T07:24:38;21.70;55.40
17813;DHT22;9030;50.792;8.320;2023-02-03T07:27:06;21.70;55.60
17813;DHT22;9030;50.792;8.320;2023-02-03T07:29:33;21.70;55.60
17813;DHT22;9030;50.792;8.320;2023-02-03T07:32:00;21.70;55.50
17813;DHT22;9030;50.792;8.320;2023-02-03T07:34:27;21.70;55.40
17813;DHT22;9030;50.792;8.320;2023-02-03T07:36:54;21.70;55.30
17813;DHT22;9030;50.792;8.320;2023-02-03T07:39:20;21.70;55.20
17813;DHT22;9030;50.792;8.320;2023-02-03T07:41:47;21.70;55.30
17813;DHT22;9030;50.792;8.320;2023-02-03T07:44:15;21.70;55.10
17813;DHT22;9030;50.792;8.320;2023-02-03T07:46:42;21.80;55.10
17813;DHT22;9030;50.792;8.320;2023-02-03T07:49:09;21.80;55.00
17813;DHT22;9030;50.792;8.320;2023-02-03T07:51:36;21.80;55.00
17813;DHT22;9030;50.792;8.320;2023-02-03T07:54:03;21.80;54.90
17813;DHT22;9030;50.792;8.320;2023-02-03T07:56:30;21.80;55.10
17813;DHT22;9030;50.792;8.320;2023-02-03T07:58:57;21.80;56.20
17813;DHT22;9030;50.792;8.320;2023-02-03T08:01:26;21.80;56.60
17813;DHT22;9030;50.792;8.320;2023-02-03T08:03:52;21.80;56.10
17813;DHT22;9030;50.792;8.320;2023-02-03T08:06:19;21.80;57.30
17813;DHT22;9030;50.792;8.320;2023-02-03T08:08:46;21.80;56.60
17813;DHT22;9030;50.792;8.320;2023-02-03T08:11:12;21.90;56.50
17813;DHT22;9030;50.792;8.320;2023-02-03T08:13:39;21.90;55.80
17813;DHT22;9030;50.792;8.320;2023-02-03T08:16:06;21.80;55.70
17813;DHT22;9030;50.792;8.320;2023-02-03T08:18:34;21.80;55.40
17813;DHT22;9030;50.792;8.320;2023-02-03T08:21:01;21.90;55.30
17813;DHT22;9030;50.792;8.320;2023-02-03T08:23:30;21.90;55.20
17813;DHT22;9030;50.792;8.320;2023-02-03T08:25:57;21.90;55.20
17813;DHT22;9030;50.792;8.320;2023-02-03T08:28:24;22.00;55.10
17813;DHT22;9030;50.792;8.320;2023-02-03T08:30:50;22.00;55.00
17813;DHT22;9030;50.792;8.320;2023-02-03T08:33:17;22.00;54.90
17813;DHT22;9030;50.792;8.320;2023-02-03T08:35:46;22.00;54.90
17813;DHT22;9030;50.792;8.320;2023-02-03T08:38:13;22.10;54.90
17813;DHT22;9030;50.792;8.320;2023-02-03T08:40:40;22.20;55.10
17813;DHT22;9030;50.792;8.320;2023-02-03T08:43:07;22.20;54.90
17813;DHT22;9030;50.792;8.320;2023-02-03T08:45:33;22.30;55.00
17813;DHT22;9030;50.792;8.320;2023-02-03T08:48:00;22.30;54.80
17813;DHT22;9030;50.792;8.320;2023-02-03T08:50:27;22.40;54.80
17813;DHT22;9030;50.792;8.320;2023-02-03T08:52:55;22.40;54.80
17813;DHT22;9030;50.792;8.320;2023-02-03T08:55:21;22.40;54.80
17813;DHT22;9030;50.792;8.320;2023-02-03T08:57:49;22.50;54.70
17813;DHT22;9030;50.792;8.320;2023-02-03T09:00:16;22.50;54.40
17813;DHT22;9030;50.792;8.320;2023-02-03T09:02:43;22.60;54.30
17813;DHT22;9030;50.792;8.320;2023-02-03T09:05:09;22.60;54.10
17813;DHT22;9030;50.792;8.320;2023-02-03T09:07:36;22.70;54.00
17813;DHT22;9030;50.792;8.320;2023-02-03T09:10:05;22.70;53.90
17813;DHT22;9030;50.792;8.320;2023-02-03T09:12:32;22.80;53.80
17813;DHT22;9030;50.792;8.320;2023-02-03T09:14:58;22.80;53.70
17813;DHT22;9030;50.792;8.320;2023-02-03T09:17:25;22.80;53.80
17813;DHT22;9030;50.792;8.320;2023-02-03T09:19:52;22.80;53.90
17813;DHT22;9030;50.792;8.320;2023-02-03T09:22:19;22.80;53.60
17813;DHT22;9030;50.792;8.320;2023-02-03T09:24:45;22.80;53.70
17813;DHT22;9030;50.792;8.320;2023-02-03T09:27:16;22.80;53.60
17813;DHT22;9030;50.792;8.320;2023-02-03T09:29:42;22.90;53.50
17813;DHT22;9030;50.792;8.320;2023-02-03T09:32:09;22.90;53.40
17813;DHT22;9030;50.792;8.320;2023-02-03T09:34:36;22.90;53.30
17813;DHT22;9030;50.792;8.320;2023-02-03T09:37:04;23.00;53.50
17813;DHT22;9030;50.792;8.320;2023-02-03T09:39:30;23.00;53.50
17813;DHT22;9030;50.792;8.320;2023-02-03T09:42:08;23.00;53.60
17813;DHT22;9030;50.792;8.320;2023-02-03T09:44:41;23.00;53.80
17813;DHT22;9030;50.792;8.320;2023-02-03T09:47:13;22.90;53.90
17813;DHT22;9030;50.792;8.320;2023-02-03T09:49:44;22.90;53.80
17813;DHT22;9030;50.792;8.320;2023-02-03T09:52:16;23.00;53.70
17813;DHT22;9030;50.792;8.320;2023-02-03T09:54:49;23.10;54.30
17813;DHT22;9030;50.792;8.320;2023-02-03T09:57:21;23.10;54.80
17813;DHT22;9030;50.792;8.320;2023-02-03T09:59:50;23.10;54.80
17813;DHT22;9030;50.792;8.320;2023-02-03T10:02:26;23.10;54.30
17813;DHT22;9030;50.792;8.320;2023-02-03T10:05:00;23.10;54.30
17813;DHT22;9030;50.792;8.320;2023-02-03T10:07:36;23.10;54.20
17813;DHT22;9030;50.792;8.320;2023-02-03T10:10:11;23.10;54.00
17813;DHT22;9030;50.792;8.320;2023-02-03T10:12:54;23.10;54.30
17813;DHT22;9030;50.792;8.320;2023-02-03T10:16:01;23.10;54.40
17813;DHT22;9030;50.792;8.320;2023-02-03T10:18:32;23.00;54.50
17813;DHT22;9030;50.792;8.320;2023-02-03T10:21:03;23.00;54.70
17813;DHT22;9030;50.792;8.320;2023-02-03T10:23:39;23.00;54.50
17813;DHT22;9030;50.792;8.320;2023-02-03T10:26:08;23.00;54.80
17813;DHT22;9030;50.792;8.320;2023-02-03T10:28:37;23.00;55.10
17813;DHT22;9030;50.792;8.320;2023-02-03T10:31:13;23.00;55.10
17813;DHT22;9030;50.792;8.320;2023-02-03T10:33:42;23.00;55.10
17813;DHT22;9030;50.792;8.320;2023-02-03T10:36:16;23.10;55.20
17813;DHT22;9030;50.792;8.320;2023-02-03T10:38:52;23.10;55.30
17813;DHT22;9030;50.792;8.320;2023-02-03T10:41:21;23.00;55.20
17813;DHT22;9030;50.792;8.320;2023-02-03T10:43:49;23.00;55.20
17813;DHT22;9030;50.792;8.320;2023-02-03T10:46:20;23.00;55.30
17813;DHT22;9030;50.792;8.320;2023-02-03T10:48:47;23.10;55.40
17813;DHT22;9030;50.792;8.320;2023-02-03T10:51:19;23.10;55.50
17813;DHT22;9030;50.792;8.320;2023-02-03T10:53:46;23.00;55.40
17813;DHT22;9030;50.792;8.320;2023-02-03T10:56:14;23.00;55.40
17813;DHT22;9030;50.792;8.320;2023-02-03T10:58:47;22.90;55.30
17813;DHT22;9030;50.792;8.320;2023-02-03T11:01:16;22.80;55.50
17813;DHT22;9030;50.792;8.320;2023-02-03T11:03:54;22.80;55.60
17813;DHT22;9030;50.792;8.320;2023-02-03T11:06:21;22.80;55.70
17813;DHT22;9030;50.792;8.320;2023-02-03T11:08:49;22.80;55.60
17813;DHT22;9030;50.792;8.320;2023-02-03T11:11:20;22.70;55.70
17813;DHT22;9030;50.792;8.320;2023-02-03T11:13:52;22.70;56.20
17813;DHT22;9030;50.792;8.320;2023-02-03T11:16:19;22.70;55.90
17813;DHT22;9030;50.792;8.320;2023-02-03T11:18:52;22.60;55.80
17813;DHT22;9030;50.792;8.320;2023-02-03T11:21:21;22.50;56.10
17813;DHT22;9030;50.792;8.320;2023-02-03T11:23:51;22.50;56.40
17813;DHT22;9030;50.792;8.320;2023-02-03T11:26:20;22.40;56.30
17813;DHT22;9030;50.792;8.320;2023-02-03T11:28:49;22.50;56.50
17813;DHT22;9030;50.792;8.320;2023-02-03T11:31:23;22.40;56.40
17813;DHT22;9030;50.792;8.320;2023-02-03T11:33:56;22.40;56.60
17813;DHT22;9030;50.792;8.320;2023-02-03T11:36:29;22.50;56.70
17813;DHT22;9030;50.792;8.320;2023-02-03T11:39:09;22.50;56.60
17813;DHT22;9030;50.792;8.320;2023-02-03T11:41:38;22.60;56.70
17813;DHT22;9030;50.792;8.320;2023-02-03T11:44:10;22.60;56.50
17813;DHT22;9030;50.792;8.320;2023-02-03T11:46:38;22.60;56.50
17813;DHT22;9030;50.792;8.320;2023-02-03T11:49:20;22.60;56.60
17813;DHT22;9030;50.792;8.320;2023-02-03T11:51:58;22.60;56.60
17813;DHT22;9030;50.792;8.320;2023-02-03T11:54:37;22.60;56.90
17813;DHT22;9030;50.792;8.320;2023-02-03T11:57:24;22.60;56.70
17813;DHT22;9030;50.792;8.320;2023-02-03T12:00:03;22.70;56.70
17813;DHT22;9030;50.792;8.320;2023-02-03T12:05:47;22.60;56.90
17813;DHT22;9030;50.792;8.320;2023-02-03T12:08:29;22.70;56.90
17813;DHT22;9030;50.792;8.320;2023-02-03T12:11:10;22.70;57.90
17813;DHT22;9030;50.792;8.320;2023-02-03T12:13:52;22.80;58.70
17813;DHT22;9030;50.792;8.320;2023-02-03T12:16:40;22.80;58.50
17813;DHT22;9030;50.792;8.320;2023-02-03T12:19:17;22.90;58.00
17813;DHT22;9030;50.792;8.320;2023-02-03T12:21:54;22.90;58.00
17813;DHT22;9030;50.792;8.320;2023-02-03T12:24:29;23.00;58.00
17813;DHT22;9030;50.792;8.320;2023-02-03T12:27:09;23.00;57.80
17813;DHT22;9030;50.792;8.320;2023-02-03T12:29:40;23.00;57.60
17813;DHT22;9030;50.792;8.320;2023-02-03T12:32:15;23.00;57.70
17813;DHT22;9030;50.792;8.320;2023-02-03T12:34:49;23.00;57.40
17813;DHT22;9030;50.792;8.320;2023-02-03T12:37:23;23.00;57.70
17813;DHT22;9030;50.792;8.320;2023-02-03T12:39:52;23.00;57.60
17813;DHT22;9030;50.792;8.320;2023-02-03T12:42:21;23.00;57.40
17813;DHT22;9030;50.792;8.320;2023-02-03T12:44:53;23.00;57.30
17813;DHT22;9030;50.792;8.320;2023-02-03T12:47:26;23.00;57.60
17813;DHT22;9030;50.792;8.320;2023-02-03T12:49:58;23.10;57.80
17813;DHT22;9030;50.792;8.320;2023-02-03T12:52:31;23.10;58.10
17813;DHT22;9030;50.792;8.320;2023-02-03T12:55:07;23.00;58.00
17813;DHT22;9030;50.792;8.320;2023-02-03T12:57:45;23.00;57.60
17813;DHT22;9030;50.792;8.320;2023-02-03T13:00:24;23.00;57.40
17813;DHT22;9030;50.792;8.320;2023-02-03T13:03:05;22.80;57.40
17813;DHT22;9030;50.792;8.320;2023-02-03T13:05:41;22.80;57.80
17813;DHT22;9030;50.792;8.320;2023-02-03T13:08:16;22.70;57.70
17813;DHT22;9030;50.792;8.320;2023-02-03T13:10:47;22.70;57.20
17813;DHT22;9030;50.792;8.320;2023-02-03T13:13:20;22.70;56.80
17813;DHT22;9030;50.792;8.320;2023-02-03T13:15:50;22.70;56.70
17813;DHT22;9030;50.792;8.320;2023-02-03T13:18:24;22.70;56.60
17813;DHT22;9030;50.792;8.320;2023-02-03T13:20:53;22.60;56.60
17813;DHT22;9030;50.792;8.320;2023-02-03T13:23:22;22.60;56.60
17813;DHT22;9030;50.792;8.320;2023-02-03T13:26:08;22.60;56.70
17813;DHT22;9030;50.792;8.320;2023-02-03T13:28:56;22.60;57.30
17813;DHT22;9030;50.792;8.320;2023-02-03T13:31:34;22.60;56.60
17813;DHT22;9030;50.792;8.320;2023-02-03T13:37:24;22.50;56.50
17813;DHT22;9030;50.792;8.320;2023-02-03T13:40:09;22.50;56.40
17813;DHT22;9030;50.792;8.320;2023-02-03T13:42:41;22.50;56.40
17813;DHT22;9030;50.792;8.320;2023-02-03T13:45:23;22.50;56.50
17813;DHT22;9030;50.792;8.320;2023-02-03T13:47:52;22.50;56.50
17813;DHT22;9030;50.792;8.320;2023-02-03T13:50:22;22.40;56.50
17813;DHT22;9030;50.792;8.320;2023-02-03T13:52:55;22.40;56.50
17813;DHT22;9030;50.792;8.320;2023-02-03T13:55:29;22.40;56.50
17813;DHT22;9030;50.792;8.320;2023-02-03T13:57:56;22.40;56.40
17813;DHT22;9030;50.792;8.320;2023-02-03T14:01:01;22.40;56.40
17813;DHT22;9030;50.792;8.320;2023-02-03T14:03:42;22.30;56.30
17813;DHT22;9030;50.792;8.320;2023-02-03T14:09:38;22.30;56.30
17813;DHT22;9030;50.792;8.320;2023-02-03T14:15:20;22.30;56.30
17813;DHT22;9030;50.792;8.320;2023-02-03T14:17:56;22.20;56.30
17813;DHT22;9030;50.792;8.320;2023-02-03T14:20:45;22.20;56.20
17813;DHT22;9030;50.792;8.320;2023-02-03T14:23:18;22.20;56.20
17813;DHT22;9030;50.792;8.320;2023-02-03T14:25:47;22.20;56.30
17813;DHT22;9030;50.792;8.320;2023-02-03T14:28:17;22.20;56.20
17813;DHT22;9030;50.792;8.320;2023-02-03T14:31:07;22.20;56.40
17813;DHT22;9030;50.792;8.320;2023-02-03T14:34:02;22.10;56.40
17813;DHT22;9030;50.792;8.320;2023-02-03T14:36:37;22.20;56.30
17813;DHT22;9030;50.792;8.320;2023-02-03T14:42:16;22.10;56.30
17813;DHT22;9030;50.792;8.320;2023-02-03T14:44:55;22.10;56.40
17813;DHT22;9030;50.792;8.320;2023-02-03T14:47:41;22.10;56.40
17813;DHT22;9030;50.792;8.320;2023-02-03T14:50:23;22.10;56.30
17813;DHT22;9030;50.792;8.320;2023-02-03T14:53:07;22.10;56.40
17813;DHT22;9030;50.792;8.320;2023-02-03T14:55:45;22.00;56.40
17813;DHT22;9030;50.792;8.320;2023-02-03T14:58:22;22.10;56.40
17813;DHT22;9030;50.792;8.320;2023-02-03T15:00:51;22.10;56.40
17813;DHT22;9030;50.792;8.320;2023-02-03T15:03:27;22.00;56.30
17813;DHT22;9030;50.792;8.320;2023-02-03T15:05:58;22.00;56.30
17813;DHT22;9030;50.792;8.320;2023-02-03T15:11:31;22.00;56.40
17813;DHT22;9030;50.792;8.320;2023-02-03T15:14:14;21.90;56.40
17813;DHT22;9030;50.792;8.320;2023-02-03T15:16:43;22.00;56.40
17813;DHT22;9030;50.792;8.320;2023-02-03T15:19:19;22.00;56.40
17813;DHT22;9030;50.792;8.320;2023-02-03T15:21:48;21.90;56.30
17813;DHT22;9030;50.792;8.320;2023-02-03T15:24:16;21.90;56.40
17813;DHT22;9030;50.792;8.320;2023-02-03T15:26:47;21.90;56.60
17813;DHT22;9030;50.792;8.320;2023-02-03T15:29:22;21.90;56.60
17813;DHT22;9030;50.792;8.320;2023-02-03T15:31:56;21.90;56.60
17813;DHT22;9030;50.792;8.320;2023-02-03T15:34:28;21.90;56.60
17813;DHT22;9030;50.792;8.320;2023-02-03T15:36:59;21.90;56.60
17813;DHT22;9030;50.792;8.320;2023-02-03T15:39:36;22.00;56.60
17813;DHT22;9030;50.792;8.320;2023-02-03T15:42:06;22.00;56.50
17813;DHT22;9030;50.792;8.320;2023-02-03T15:44:37;22.00;56.40
17813;DHT22;9030;50.792;8.320;2023-02-03T15:47:18;22.00;56.30
17813;DHT22;9030;50.792;8.320;2023-02-03T15:49:55;22.00;56.40
17813;DHT22;9030;50.792;8.320;2023-02-03T15:52:24;22.00;56.40
17813;DHT22;9030;50.792;8.320;2023-02-03T15:54:55;21.90;56.40
17813;DHT22;9030;50.792;8.320;2023-02-03T15:57:28;22.00;56.40
17813;DHT22;9030;50.792;8.320;2023-02-03T16:02:39;21.90;56.30
17813;DHT22;9030;50.792;8.320;2023-02-03T16:05:20;21.90;56.30
17813;DHT22;9030;50.792;8.320;2023-02-03T16:07:48;21.90;56.40
17813;DHT22;9030;50.792;8.320;2023-02-03T16:10:26;21.90;56.30
17813;DHT22;9030;50.792;8.320;2023-02-03T16:13:13;21.90;56.30
17813;DHT22;9030;50.792;8.320;2023-02-03T16:15:43;21.90;56.30
17813;DHT22;9030;50.792;8.320;2023-02-03T16:18:15;21.90;56.30
17813;DHT22;9030;50.792;8.320;2023-02-03T16:20:50;21.90;56.30
17813;DHT22;9030;50.792;8.320;2023-02-03T16:23:19;21.90;55.70
17813;DHT22;9030;50.792;8.320;2023-02-03T16:26:05;21.70;56.10
17813;DHT22;9030;50.792;8.320;2023-02-03T16:28:33;21.60;56.30
17813;DHT22;9030;50.792;8.320;2023-02-03T16:31:18;21.50;56.50
17813;DHT22;9030;50.792;8.320;2023-02-03T16:34:11;21.50;56.70